createdAt,value
2017-12-03T00:00:13.582Z,-1.10
2017-12-03T00:02:41.152Z,-1.10
2017-12-03T00:05:08.689Z,-0.90
2017-12-03T00:07:36.253Z,-1.00
2017-12-03T00:10:03.790Z,-1.10
2017-12-03T00:12:32.124Z,-0.80
2017-12-03T00:14:59.653Z,-0.80
2017-12-03T00:17:27.210Z,-0.80
2017-12-03T00:19:54.752Z,-1.10
2017-12-03T00:22:22.307Z,-1.10
2017-12-03T00:24:49.862Z,-1.20
2017-12-03T00:27:18.194Z,-1.30
2017-12-03T00:29:45.740Z,-1.40
2017-12-03T00:32:13.307Z,-1.20
2017-12-03T00:34:40.838Z,-1.20
2017-12-03T00:37:08.538Z,-1.20
2017-12-03T00:39:36.334Z,-1.20
2017-12-03T00:42:04.674Z,-1.00
2017-12-03T00:44:32.220Z,-1.10
2017-12-03T00:46:59.812Z,-1.10
2017-12-03T00:49:27.462Z,-1.10
2017-12-03T00:51:55.024Z,-1.10
2017-12-03T00:54:22.621Z,-1.20
2017-12-03T00:56:50.956Z,-1.10
2017-12-03T00:59:18.494Z,-1.10
2017-12-03T01:01:46.058Z,-0.80
2017-12-03T01:04:13.591Z,-0.80
2017-12-03T01:06:41.919Z,-1.10
2017-12-03T01:09:09.460Z,-1.10
2017-12-03T01:11:37.022Z,-1.00
2017-12-03T01:14:04.566Z,-0.90
2017-12-03T01:16:32.358Z,-0.80
2017-12-03T01:18:59.908Z,-1.10
2017-12-03T01:21:27.469Z,-0.90
2017-12-03T01:23:55.011Z,-0.90
2017-12-03T01:26:22.574Z,-1.00
2017-12-03T01:28:50.115Z,-1.10
2017-12-03T01:31:17.674Z,-1.10
2017-12-03T01:33:45.980Z,-1.30
2017-12-03T01:36:13.544Z,-1.30
2017-12-03T01:38:41.280Z,-1.40
2017-12-03T01:41:08.870Z,-1.30
2017-12-03T01:43:36.429Z,-1.10
2017-12-03T01:46:03.962Z,-1.00
2017-12-03T01:48:31.522Z,-1.10
2017-12-03T01:50:59.066Z,-1.20
2017-12-03T01:53:27.582Z,-0.90
2017-12-03T01:55:55.118Z,-0.90
2017-12-03T01:58:23.442Z,-1.00
2017-12-03T02:00:50.981Z,-1.00
2017-12-03T02:03:18.560Z,-1.10
2017-12-03T02:05:46.107Z,-1.20
2017-12-03T02:08:13.671Z,-1.30
2017-12-03T02:10:41.206Z,-1.30
2017-12-03T02:13:08.762Z,-1.30
2017-12-03T02:15:37.050Z,-1.10
2017-12-03T02:18:04.619Z,-1.20
2017-12-03T02:20:32.163Z,-1.30
2017-12-03T02:22:59.731Z,-1.30
2017-12-03T02:25:27.271Z,-1.20
2017-12-03T02:27:54.839Z,-1.10
2017-12-03T02:30:22.374Z,-1.00
2017-12-03T02:32:50.718Z,-1.10
2017-12-03T02:35:18.245Z,-1.10
2017-12-03T02:37:45.808Z,-1.10
2017-12-03T02:40:13.344Z,-0.90
2017-12-03T02:42:41.666Z,-1.10
2017-12-03T02:45:09.974Z,-1.10
2017-12-03T02:47:37.546Z,-1.10
2017-12-03T02:50:05.074Z,-1.20
2017-12-03T02:52:32.615Z,-1.00
2017-12-03T02:55:00.186Z,-0.90
2017-12-03T02:57:27.717Z,-1.00
2017-12-03T02:59:55.275Z,-0.90
2017-12-03T03:02:22.816Z,-0.90
2017-12-03T03:04:51.148Z,-0.90
2017-12-03T03:07:18.683Z,-0.90
2017-12-03T03:09:46.248Z,-0.90
2017-12-03T03:12:13.783Z,-1.10
2017-12-03T03:14:41.356Z,-1.20
2017-12-03T03:17:08.895Z,-1.20
2017-12-03T03:19:37.232Z,-1.10
2017-12-03T03:22:04.767Z,-1.10
2017-12-03T03:24:32.327Z,-1.00
2017-12-03T03:26:59.866Z,-1.10
2017-12-03T03:29:27.426Z,-1.00
2017-12-03T03:31:54.963Z,-1.10
2017-12-03T03:34:23.290Z,-1.20
2017-12-03T03:36:50.823Z,-1.20
2017-12-03T03:39:18.435Z,-1.30
2017-12-03T03:41:45.984Z,-1.30
2017-12-03T03:44:13.554Z,-1.10
2017-12-03T03:46:41.098Z,-1.00
2017-12-03T03:49:08.658Z,-1.00
2017-12-03T03:51:36.199Z,-1.10
2017-12-03T03:54:03.734Z,-1.20
2017-12-03T03:56:31.297Z,-1.30
2017-12-03T03:58:58.851Z,-1.30
2017-12-03T04:01:26.446Z,-1.40
2017-12-03T04:03:53.982Z,-1.40
2017-12-03T04:06:21.546Z,-1.40
2017-12-03T04:08:49.079Z,-1.30
2017-12-03T04:11:17.403Z,-1.40
2017-12-03T04:13:50.875Z,-1.40
2017-12-03T04:16:18.444Z,-1.50
2017-12-03T04:18:45.986Z,-1.50
2017-12-03T04:21:14.311Z,-1.60
2017-12-03T04:23:41.843Z,-1.60
2017-12-03T04:26:09.425Z,-1.40
2017-12-03T04:28:36.962Z,-1.20
2017-12-03T04:31:04.527Z,-1.00
2017-12-03T04:33:32.066Z,-1.10
2017-12-03T04:35:59.714Z,-1.10
2017-12-03T04:38:28.027Z,-1.20
2017-12-03T04:40:55.592Z,-1.20
2017-12-03T04:43:23.146Z,-1.10
2017-12-03T04:45:50.717Z,-1.00
2017-12-03T04:48:18.250Z,-0.90
2017-12-03T04:50:45.823Z,-1.00
2017-12-03T04:53:13.358Z,-1.20
2017-12-03T04:55:41.690Z,-1.20
2017-12-03T04:58:09.278Z,-1.20
2017-12-03T05:00:36.825Z,-1.20
2017-12-03T05:03:04.386Z,-1.20
2017-12-03T05:05:31.931Z,-1.20
2017-12-03T05:07:59.494Z,-1.20
2017-12-03T05:10:27.028Z,-1.10
2017-12-03T05:12:54.594Z,-1.00
2017-12-03T05:15:22.138Z,-1.30
2017-12-03T05:17:49.694Z,-1.40
2017-12-03T05:20:17.239Z,-1.40
2017-12-03T05:22:44.794Z,-1.40
2017-12-03T05:25:13.097Z,-1.30
2017-12-03T05:27:40.659Z,-1.30
2017-12-03T05:30:08.195Z,-1.40
2017-12-03T05:32:36.513Z,-1.50
2017-12-03T05:35:04.046Z,-1.50
2017-12-03T05:37:31.614Z,-1.40
2017-12-03T05:39:59.146Z,-1.40
2017-12-03T05:42:27.479Z,-1.40
2017-12-03T05:44:55.797Z,-1.30
2017-12-03T05:47:24.126Z,-1.20
2017-12-03T05:49:51.663Z,-1.30
2017-12-03T05:52:19.227Z,-1.30
2017-12-03T05:54:46.760Z,-1.30
2017-12-03T05:57:15.090Z,-1.30
2017-12-03T05:59:42.627Z,-1.30
2017-12-03T06:02:10.191Z,-1.20
2017-12-03T06:04:37.734Z,-1.30
2017-12-03T06:07:05.274Z,-1.40
2017-12-03T06:09:33.602Z,-1.40
2017-12-03T06:12:01.143Z,-1.40
2017-12-03T06:14:28.715Z,-1.40
2017-12-03T06:16:56.258Z,-1.50
2017-12-03T06:19:23.822Z,-1.40
2017-12-03T06:21:51.362Z,-1.40
2017-12-03T06:24:18.925Z,-1.40
2017-12-03T06:26:46.459Z,-1.50
2017-12-03T06:29:14.797Z,-1.50
2017-12-03T06:51:15.782Z,-1.50
2017-12-03T06:53:43.354Z,-1.50
2017-12-03T06:56:10.901Z,-1.50
2017-12-03T06:58:38.477Z,-1.50
2017-12-03T07:01:06.026Z,-1.50
2017-12-03T07:03:33.607Z,-1.50
2017-12-03T07:06:01.147Z,-1.50
2017-12-03T07:08:28.707Z,-1.50
2017-12-03T07:10:56.263Z,-1.50
2017-12-03T07:13:23.824Z,-1.60
2017-12-03T07:15:51.372Z,-1.50
2017-12-03T07:18:18.938Z,-1.60
2017-12-03T07:20:46.477Z,-1.60
2017-12-03T07:23:14.039Z,-1.60
2017-12-03T07:25:41.585Z,-1.60
2017-12-03T07:28:09.145Z,-1.60
2017-12-03T07:30:58.339Z,-1.60
2017-12-03T07:33:25.918Z,-1.50
2017-12-03T07:35:53.462Z,-1.50
2017-12-03T07:38:21.028Z,-1.50
2017-12-03T07:40:48.575Z,-1.50
2017-12-03T07:43:16.134Z,-1.50
2017-12-03T07:45:43.676Z,-1.50
2017-12-03T07:48:11.233Z,-1.50
2017-12-03T07:50:38.779Z,-1.50
2017-12-03T07:53:06.358Z,-1.40
2017-12-03T07:55:33.898Z,-1.40
2017-12-03T07:58:01.472Z,-1.50
2017-12-03T08:00:29.018Z,-1.40
2017-12-03T08:02:56.586Z,-1.30
2017-12-03T08:05:24.122Z,-1.30
2017-12-03T08:07:52.467Z,-1.40
2017-12-03T08:10:20.018Z,-1.40
2017-12-03T08:12:47.581Z,-1.40
2017-12-03T08:15:15.121Z,-1.40
2017-12-03T08:17:42.694Z,-1.30
2017-12-03T08:20:10.235Z,-1.40
2017-12-03T08:22:37.915Z,-1.40
2017-12-03T08:25:05.479Z,-1.40
2017-12-03T08:27:33.014Z,-1.40
2017-12-03T08:30:00.579Z,-1.40
2017-12-03T08:32:28.118Z,-1.30
2017-12-03T08:34:55.689Z,-1.30
2017-12-03T08:37:23.230Z,-1.10
2017-12-03T08:39:51.563Z,-1.20
2017-12-03T08:42:19.109Z,-1.20
2017-12-03T08:44:46.683Z,-1.20
2017-12-03T08:47:14.240Z,-1.10
2017-12-03T08:49:41.803Z,-1.00
2017-12-03T08:52:09.346Z,-1.00
2017-12-03T08:54:36.910Z,-1.10
2017-12-03T08:57:04.471Z,-1.10
2017-12-03T08:59:32.037Z,-1.00
2017-12-03T09:01:59.579Z,-0.90
2017-12-03T09:04:27.145Z,-0.80
2017-12-03T09:06:54.671Z,-0.70
2017-12-03T09:09:23.000Z,-0.60
2017-12-03T09:11:50.610Z,-0.60
2017-12-03T09:14:18.922Z,-0.80
2017-12-03T09:16:46.463Z,-0.80
2017-12-03T09:19:14.026Z,-0.70
2017-12-03T09:21:41.606Z,-0.60
2017-12-03T09:24:09.169Z,-0.60
2017-12-03T09:26:36.761Z,-0.70
2017-12-03T09:29:04.338Z,-0.70
2017-12-03T09:31:32.733Z,-0.60
2017-12-03T09:34:00.296Z,-0.60
2017-12-03T09:36:27.835Z,-0.50
2017-12-03T09:38:56.175Z,-0.60
2017-12-03T09:41:23.706Z,-0.60
2017-12-03T09:43:51.285Z,-0.50
2017-12-03T09:46:18.819Z,-0.50
2017-12-03T09:48:46.384Z,-0.50
2017-12-03T09:51:13.940Z,-0.60
2017-12-03T09:53:41.518Z,-0.50
2017-12-03T09:56:09.057Z,-0.60
2017-12-03T09:58:36.624Z,-0.40
2017-12-03T10:01:04.166Z,-0.50
2017-12-03T10:03:32.485Z,-0.70
2017-12-03T10:06:00.032Z,-0.80
2017-12-03T10:08:27.607Z,-0.80
2017-12-03T10:10:55.162Z,-0.60
2017-12-03T10:13:23.497Z,-0.50
2017-12-03T10:15:51.809Z,-0.80
2017-12-03T10:18:19.379Z,-0.80
2017-12-03T10:23:40.067Z,-0.90
2017-12-03T10:26:07.612Z,-0.80
2017-12-03T10:28:35.947Z,-0.70
2017-12-03T10:31:03.498Z,-0.80
2017-12-03T10:33:31.830Z,-0.60
2017-12-03T10:36:00.146Z,-0.60
2017-12-03T10:38:27.714Z,-0.60
2017-12-03T10:40:55.254Z,-0.60
2017-12-03T10:43:22.826Z,-0.70
2017-12-03T10:45:50.367Z,-0.50
2017-12-03T10:48:17.926Z,-0.40
2017-12-03T10:50:45.479Z,-0.50
2017-12-03T10:53:13.027Z,-0.60
2017-12-03T10:55:41.354Z,-0.50
2017-12-03T10:58:08.895Z,-0.60
2017-12-03T11:00:36.469Z,-0.40
2017-12-03T11:03:04.007Z,-0.40
2017-12-03T11:05:31.578Z,-0.50
2017-12-03T11:07:59.118Z,-0.50
2017-12-03T11:10:26.695Z,-0.50
2017-12-03T11:12:54.251Z,-0.60
2017-12-03T11:15:21.818Z,-0.80
2017-12-03T11:17:49.364Z,-0.50
2017-12-03T11:20:16.938Z,-0.50
2017-12-03T11:22:44.482Z,-0.60
2017-12-03T11:25:12.055Z,-0.60
2017-12-03T11:27:39.606Z,-0.50
2017-12-03T11:30:07.172Z,-0.60
2017-12-03T11:32:34.711Z,-0.70
2017-12-03T11:35:02.276Z,-0.80
2017-12-03T11:37:29.816Z,-0.80
2017-12-03T11:39:58.193Z,-0.80
2017-12-03T11:42:25.711Z,-0.80
2017-12-03T11:44:53.271Z,-0.70
2017-12-03T11:47:20.818Z,-0.60
2017-12-03T11:49:48.381Z,-0.50
2017-12-03T11:52:16.693Z,-0.50
2017-12-03T11:54:44.254Z,-0.50
2017-12-03T11:57:11.794Z,-0.50
2017-12-03T11:59:39.354Z,-0.50
2017-12-03T12:02:06.892Z,-0.50
2017-12-03T12:04:34.454Z,-0.40
2017-12-03T12:07:01.996Z,-0.50
2017-12-03T12:09:29.558Z,-0.30
2017-12-03T12:11:57.099Z,-0.30
2017-12-03T12:14:25.427Z,-0.40
2017-12-03T12:16:52.977Z,-0.40
2017-12-03T12:19:20.535Z,-0.40
2017-12-03T12:21:48.066Z,-0.40
2017-12-03T12:24:15.633Z,-0.40
2017-12-03T12:26:43.173Z,-0.50
2017-12-03T12:29:11.508Z,-0.50
2017-12-03T12:31:39.068Z,-0.50
2017-12-03T12:34:06.636Z,-0.60
2017-12-03T12:36:34.174Z,-0.50
2017-12-03T12:39:01.743Z,-0.50
2017-12-03T12:41:29.296Z,-0.50
2017-12-03T12:43:56.863Z,-0.60
2017-12-03T12:46:24.412Z,-0.50
2017-12-03T12:48:51.974Z,-0.40
2017-12-03T12:51:19.520Z,-0.30
2017-12-03T12:53:47.063Z,-0.30
2017-12-03T12:56:14.630Z,-0.30
2017-12-03T12:58:42.170Z,-0.30
2017-12-03T13:01:09.742Z,-0.20
2017-12-03T13:03:37.286Z,-0.30
2017-12-03T13:06:05.618Z,-0.20
2017-12-03T13:08:33.164Z,-0.20
2017-12-03T13:11:00.733Z,-0.30
2017-12-03T13:13:28.274Z,-0.30
2017-12-03T13:15:55.834Z,-0.30
2017-12-03T13:18:23.370Z,-0.30
2017-12-03T13:20:50.951Z,-0.30
2017-12-03T13:23:18.486Z,-0.40
2017-12-03T13:25:46.059Z,-0.30
2017-12-03T13:28:13.598Z,-0.40
2017-12-03T13:30:41.933Z,-0.30
2017-12-03T13:33:09.487Z,-0.40
2017-12-03T13:35:37.052Z,-0.30
2017-12-03T13:38:04.596Z,-0.40
2017-12-03T13:40:32.163Z,-0.60
2017-12-03T13:42:59.708Z,-0.60
2017-12-03T13:45:27.277Z,-0.50
2017-12-03T13:47:54.819Z,-0.50
2017-12-03T13:50:22.386Z,-0.50
2017-12-03T13:52:49.926Z,-0.40
2017-12-03T13:55:17.500Z,-0.60
2017-12-03T13:57:45.042Z,-0.60
2017-12-03T14:00:13.374Z,-0.70
2017-12-03T14:02:40.921Z,-0.70
2017-12-03T14:05:08.495Z,-0.60
2017-12-03T14:07:36.048Z,-0.50
2017-12-03T14:10:03.614Z,-0.50
2017-12-03T14:12:31.164Z,-0.60
2017-12-03T14:14:58.743Z,-0.70
2017-12-03T14:17:26.290Z,-0.70
2017-12-03T14:19:53.859Z,-0.70
2017-12-03T14:22:21.401Z,-0.70
2017-12-03T14:24:48.975Z,-0.70
2017-12-03T14:27:16.527Z,-0.70
2017-12-03T14:29:44.093Z,-0.60
2017-12-03T14:32:11.646Z,-0.60
2017-12-03T14:34:39.219Z,-0.70
2017-12-03T14:37:06.751Z,-0.60
2017-12-03T14:39:34.315Z,-0.60
2017-12-03T14:42:01.862Z,-0.70
2017-12-03T14:44:29.434Z,-0.60
2017-12-03T14:46:56.980Z,-0.60
2017-12-03T14:49:24.555Z,-0.70
2017-12-03T14:51:52.091Z,-0.70
2017-12-03T14:54:19.670Z,-0.70
2017-12-03T14:56:47.216Z,-0.80
2017-12-03T14:59:14.760Z,-0.80
2017-12-03T15:01:42.335Z,-0.80
2017-12-03T15:04:09.885Z,-0.80
2017-12-03T15:06:37.451Z,-0.80
2017-12-03T15:09:04.990Z,-0.70
2017-12-03T15:11:33.352Z,-0.70
2017-12-03T15:14:00.890Z,-0.70
2017-12-03T15:16:28.463Z,-0.70
2017-12-03T15:18:56.008Z,-0.60
2017-12-03T15:21:23.582Z,-0.70
2017-12-03T15:23:51.132Z,-0.70
2017-12-03T15:26:18.692Z,-0.60
2017-12-03T15:28:46.230Z,-0.70
2017-12-03T15:31:13.801Z,-0.80
2017-12-03T15:33:41.333Z,-0.80
2017-12-03T15:36:08.906Z,-0.70
2017-12-03T15:38:36.467Z,-0.70
2017-12-03T15:41:04.035Z,-0.80
2017-12-03T15:43:31.577Z,-0.80
2017-12-03T15:45:59.136Z,-0.80
2017-12-03T15:48:26.681Z,-0.80
2017-12-03T15:50:54.248Z,-0.90
2017-12-03T15:53:21.783Z,-0.90
2017-12-03T15:55:50.109Z,-0.90
2017-12-03T15:58:17.683Z,-0.90
2017-12-03T16:00:45.242Z,-0.90
2017-12-03T16:03:12.783Z,-0.80
2017-12-03T16:05:40.348Z,-0.80
2017-12-03T16:08:07.894Z,-0.80
2017-12-03T16:10:35.551Z,-0.80
2017-12-03T16:13:03.097Z,-0.80
2017-12-03T16:15:30.666Z,-0.80
2017-12-03T16:17:58.207Z,-0.80
2017-12-03T16:20:26.546Z,-0.80
2017-12-03T16:22:54.087Z,-0.90
2017-12-03T16:25:21.667Z,-0.90
2017-12-03T16:27:49.211Z,-0.90
2017-12-03T16:30:16.783Z,-0.80
2017-12-03T16:32:44.322Z,-0.80
2017-12-03T16:35:11.887Z,-0.90
2017-12-03T16:37:39.430Z,-0.90
2017-12-03T16:40:07.045Z,-0.90
2017-12-03T16:42:34.586Z,-0.90
2017-12-03T16:45:02.183Z,-0.90
2017-12-03T16:47:30.500Z,-0.80
2017-12-03T16:49:58.065Z,-0.80
2017-12-03T16:52:25.615Z,-0.80
2017-12-03T16:54:53.186Z,-0.90
2017-12-03T16:57:20.726Z,-0.80
2017-12-03T16:59:48.270Z,-0.90
2017-12-03T17:02:16.610Z,-0.90
2017-12-03T17:04:44.151Z,-0.90
2017-12-03T17:07:11.727Z,-0.90
2017-12-03T17:09:39.262Z,-0.90
2017-12-03T17:12:06.822Z,-1.00
2017-12-03T17:14:34.390Z,-0.90
2017-12-03T17:17:01.958Z,-0.90
2017-12-03T17:19:29.499Z,-0.90
2017-12-03T17:21:57.069Z,-0.90
2017-12-03T17:24:24.618Z,-0.90
2017-12-03T17:26:52.185Z,-0.90
2017-12-03T17:29:19.722Z,-0.90
2017-12-03T17:31:47.294Z,-0.90
2017-12-03T17:34:14.844Z,-0.90
2017-12-03T17:36:42.403Z,-1.00
2017-12-03T17:39:09.943Z,-0.90
2017-12-03T17:41:38.282Z,-0.90
2017-12-03T17:44:05.834Z,-1.00
2017-12-03T17:46:33.404Z,-0.90
2017-12-03T17:49:00.962Z,-0.90
2017-12-03T17:51:28.531Z,-0.90
2017-12-03T17:53:56.079Z,-0.90
2017-12-03T17:56:23.647Z,-0.80
2017-12-03T17:58:51.195Z,-0.90
2017-12-03T18:01:18.767Z,-0.90
2017-12-03T18:03:46.319Z,-0.80
2017-12-03T18:06:13.882Z,-0.90
2017-12-03T18:08:41.430Z,-0.80
2017-12-03T18:11:09.003Z,-0.90
2017-12-03T18:13:36.584Z,-0.90
2017-12-03T18:16:04.937Z,-1.00
2017-12-03T18:18:32.492Z,-1.00
2017-12-03T18:21:00.068Z,-0.90
2017-12-03T18:23:27.617Z,-0.80
2017-12-03T18:25:55.963Z,-0.80
2017-12-03T18:28:23.510Z,-0.80
2017-12-03T18:30:51.071Z,-0.80
2017-12-03T18:33:18.623Z,-0.80
2017-12-03T18:35:46.208Z,-0.80
2017-12-03T18:38:13.763Z,-0.80
2017-12-03T18:40:41.342Z,-0.90
2017-12-03T18:43:08.897Z,-0.80
2017-12-03T18:45:36.477Z,-0.80
2017-12-03T18:48:04.028Z,-0.70
2017-12-03T18:50:31.599Z,-0.70
2017-12-03T18:52:59.142Z,-0.80
2017-12-03T18:55:27.478Z,-0.80
2017-12-03T18:57:55.789Z,-0.80
2017-12-03T19:00:23.363Z,-0.90
2017-12-03T19:02:50.907Z,-0.90
2017-12-03T19:05:18.470Z,-0.80
2017-12-03T19:07:46.035Z,-0.70
2017-12-03T19:10:13.594Z,-0.70
2017-12-03T19:12:41.160Z,-0.70
2017-12-03T19:15:09.247Z,-0.70
2017-12-03T19:17:37.026Z,-0.70
2017-12-03T19:20:04.656Z,-0.70
2017-12-03T19:22:32.231Z,-0.60
2017-12-03T19:24:59.780Z,-0.60
2017-12-03T19:27:27.466Z,-0.70
2017-12-03T19:29:55.151Z,-0.70
2017-12-03T19:32:23.664Z,-0.60
2017-12-03T19:34:51.228Z,-0.70
2017-12-03T19:37:18.883Z,-0.60
2017-12-03T19:39:46.473Z,-0.60
2017-12-03T19:42:14.085Z,-0.60
2017-12-03T19:44:41.662Z,-0.60
2017-12-03T19:47:09.226Z,-0.60
2017-12-03T19:49:36.766Z,-0.60
2017-12-03T19:52:05.102Z,-0.60
2017-12-03T19:54:32.641Z,-0.60
2017-12-03T19:57:00.207Z,-0.50
2017-12-03T19:59:27.746Z,-0.60
2017-12-03T20:01:55.316Z,-0.50
2017-12-03T20:04:22.878Z,-0.60
2017-12-03T20:06:50.455Z,-0.50
2017-12-03T20:09:18.094Z,-0.50
2017-12-03T20:11:45.687Z,-0.60
2017-12-03T20:14:13.244Z,-0.50
2017-12-03T20:16:40.811Z,-0.50
2017-12-03T20:19:08.364Z,-0.50
2017-12-03T20:21:35.935Z,-0.60
2017-12-03T20:24:03.486Z,-0.60
2017-12-03T20:26:31.042Z,-0.60
2017-12-03T20:28:58.583Z,-0.60
2017-12-03T20:31:26.146Z,-0.60
2017-12-03T20:33:53.689Z,-0.50
2017-12-03T20:36:21.255Z,-0.50
2017-12-03T20:38:48.802Z,-0.60
2017-12-03T20:41:16.372Z,-0.60
2017-12-03T20:43:43.920Z,-0.50
2017-12-03T20:46:11.491Z,-0.60
2017-12-03T20:48:39.030Z,-0.60
2017-12-03T20:51:06.599Z,-0.60
2017-12-03T20:53:34.137Z,-0.60
2017-12-03T20:56:02.484Z,-0.60
2017-12-03T20:58:30.085Z,-0.60
2017-12-03T21:00:57.595Z,-0.60
2017-12-03T21:03:25.154Z,-0.50
2017-12-03T21:05:52.698Z,-0.60
2017-12-03T21:08:20.284Z,-0.50
2017-12-03T21:10:47.827Z,-0.50
2017-12-03T21:13:15.394Z,-0.50
2017-12-03T21:15:42.938Z,-0.50
2017-12-03T21:18:10.506Z,-0.50
2017-12-03T21:20:38.043Z,-0.60
2017-12-03T21:23:05.619Z,-0.50
2017-12-03T21:25:33.157Z,-0.50
2017-12-03T21:28:00.719Z,-0.50
2017-12-03T21:30:28.257Z,-0.50
2017-12-03T21:32:56.602Z,-0.50
2017-12-03T21:35:24.153Z,-0.50
2017-12-03T21:37:51.730Z,-0.60
2017-12-03T21:40:19.262Z,-0.60
2017-12-03T21:42:46.822Z,-0.60
2017-12-03T21:45:14.357Z,-0.60
2017-12-03T21:47:41.923Z,-0.60
2017-12-03T21:50:09.461Z,-0.60
2017-12-03T21:52:37.795Z,-0.50
2017-12-03T21:55:05.336Z,-0.50
2017-12-03T21:57:32.912Z,-0.50
2017-12-03T22:00:08.934Z,-0.50
2017-12-03T22:02:36.507Z,-0.50
2017-12-03T22:05:04.050Z,-0.50
2017-12-03T22:07:31.647Z,-0.50
2017-12-03T22:09:59.226Z,-0.60
2017-12-03T22:12:26.769Z,-0.50
2017-12-03T22:14:54.377Z,-0.50
2017-12-03T22:17:22.698Z,-0.50
2017-12-03T22:19:50.266Z,-0.50
2017-12-03T22:22:18.625Z,-0.50
2017-12-03T22:24:46.185Z,-0.50
2017-12-03T22:27:13.731Z,-0.50
2017-12-03T22:29:41.294Z,-0.50
2017-12-03T22:32:08.840Z,-0.50
2017-12-03T22:34:36.416Z,-0.40
2017-12-03T22:37:03.955Z,-0.50
2017-12-03T22:39:32.287Z,-0.50
2017-12-03T22:41:59.830Z,-0.50
2017-12-03T22:44:27.394Z,-0.50
2017-12-03T22:46:54.941Z,-0.50
2017-12-03T22:49:22.513Z,-0.50
2017-12-03T22:51:50.063Z,-0.40
2017-12-03T22:54:17.631Z,-0.50
2017-12-03T22:56:45.178Z,-0.50
2017-12-03T22:59:12.750Z,-0.40
2017-12-03T23:01:40.289Z,-0.40
2017-12-03T23:04:07.862Z,-0.40
2017-12-03T23:06:35.408Z,-0.30
2017-12-03T23:09:02.962Z,-0.30
2017-12-03T23:11:30.528Z,-0.40
2017-12-03T23:13:58.074Z,-0.30
2017-12-03T23:16:25.639Z,-0.30
2017-12-03T23:18:53.938Z,-0.30
2017-12-03T23:21:21.505Z,-0.40
2017-12-03T23:23:49.044Z,-0.40
2017-12-03T23:26:16.611Z,-0.30
2017-12-03T23:28:44.162Z,-0.30
2017-12-03T23:31:11.727Z,-0.30
2017-12-03T23:33:39.317Z,-0.30
2017-12-03T23:36:06.891Z,-0.30
2017-12-03T23:38:34.445Z,-0.40
2017-12-03T23:41:02.018Z,-0.30
2017-12-03T23:43:29.576Z,-0.30
2017-12-03T23:45:57.166Z,-0.30
2017-12-03T23:48:25.473Z,-0.30
2017-12-03T23:50:53.037Z,-0.40
2017-12-03T23:53:20.579Z,-0.30
2017-12-03T23:55:48.148Z,-0.30
2017-12-03T23:58:15.696Z,-0.30
